sensor_id;sensor_type;location;lat;lon;timestamp;P1;P2;P0
31330;PMS5003;34067;39.548;-76.088;2022-11-20T00:01:34;266;265;
31330;PMS5003;34067;39.548;-76.088;2022-11-20T00:04:02;295;293;
31330;PMS5003;34067;39.548;-76.088;2022-11-20T00:06:29;276;273;
31330;PMS5003;34067;39.548;-76.088;2022-11-20T00:08:58;285;284;
31330;PMS5003;34067;39.548;-76.088;2022-11-20T00:11:27;270;268;
31330;PMS5003;34067;39.548;-76.088;2022-11-20T00:13:57;269;268;
31330;PMS5003;34067;39.548;-76.088;2022-11-20T00:16:27;286;286;
31330;PMS5003;34067;39.548;-76.088;2022-11-20T00:18:56;283;283;
31330;PMS5003;34067;39.548;-76.088;2022-11-20T00:21:25;309;309;
31330;PMS5003;34067;39.548;-76.088;2022-11-20T00:23:54;298;298;
31330;PMS5003;34067;39.548;-76.088;2022-11-20T00:26:25;308;308;
31330;PMS5003;34067;39.548;-76.088;2022-11-20T00:28:54;313;313;
31330;PMS5003;34067;39.548;-76.088;2022-11-20T00:31:23;326;325;
31330;PMS5003;34067;39.548;-76.088;2022-11-20T00:33:51;336;336;
31330;PMS5003;34067;39.548;-76.088;2022-11-20T00:36:20;342;341;
31330;PMS5003;34067;39.548;-76.088;2022-11-20T00:38:51;367;364;
31330;PMS5003;34067;39.548;-76.088;2022-11-20T00:41:19;369;368;
31330;PMS5003;34067;39.548;-76.088;2022-11-20T00:43:47;366;365;
31330;PMS5003;34067;39.548;-76.088;2022-11-20T00:46:15;365;365;
31330;PMS5003;34067;39.548;-76.088;2022-11-20T00:48:44;392;392;
31330;PMS5003;34067;39.548;-76.088;2022-11-20T00:51:13;382;382;
31330;PMS5003;34067;39.548;-76.088;2022-11-20T00:53:42;382;381;
31330;PMS5003;34067;39.548;-76.088;2022-11-20T00:56:10;383;383;
31330;PMS5003;34067;39.548;-76.088;2022-11-20T00:58:40;404;404;
31330;PMS5003;34067;39.548;-76.088;2022-11-20T01:01:10;392;392;
31330;PMS5003;34067;39.548;-76.088;2022-11-20T01:03:39;383;383;
31330;PMS5003;34067;39.548;-76.088;2022-11-20T01:06:09;396;396;
31330;PMS5003;34067;39.548;-76.088;2022-11-20T01:08:39;388;388;
31330;PMS5003;34067;39.548;-76.088;2022-11-20T01:11:08;388;388;
31330;PMS5003;34067;39.548;-76.088;2022-11-20T01:13:38;405;405;
31330;PMS5003;34067;39.548;-76.088;2022-11-20T01:16:06;391;391;
31330;PMS5003;34067;39.548;-76.088;2022-11-20T01:18:36;360;360;
31330;PMS5003;34067;39.548;-76.088;2022-11-20T01:21:05;406;405;
31330;PMS5003;34067;39.548;-76.088;2022-11-20T01:23:35;399;398;
31330;PMS5003;34067;39.548;-76.088;2022-11-20T01:26:06;382;382;
31330;PMS5003;34067;39.548;-76.088;2022-11-20T01:28:36;379;379;
31330;PMS5003;34067;39.548;-76.088;2022-11-20T01:31:10;375;375;
31330;PMS5003;34067;39.548;-76.088;2022-11-20T01:33:40;366;365;
31330;PMS5003;34067;39.548;-76.088;2022-11-20T01:36:09;366;363;
31330;PMS5003;34067;39.548;-76.088;2022-11-20T01:38:38;370;370;
31330;PMS5003;34067;39.548;-76.088;2022-11-20T01:41:06;368;367;
31330;PMS5003;34067;39.548;-76.088;2022-11-20T01:43:35;379;378;
31330;PMS5003;34067;39.548;-76.088;2022-11-20T01:46:04;380;379;
31330;PMS5003;34067;39.548;-76.088;2022-11-20T01:48:41;390;390;
31330;PMS5003;34067;39.548;-76.088;2022-11-20T01:51:16;357;355;
31330;PMS5003;34067;39.548;-76.088;2022-11-20T01:53:48;370;369;
31330;PMS5003;34067;39.548;-76.088;2022-11-20T01:56:19;351;351;
31330;PMS5003;34067;39.548;-76.088;2022-11-20T01:58:48;306;302;
31330;PMS5003;34067;39.548;-76.088;2022-11-20T02:01:18;304;303;
31330;PMS5003;34067;39.548;-76.088;2022-11-20T02:03:48;279;277;
31330;PMS5003;34067;39.548;-76.088;2022-11-20T02:06:19;256;255;
31330;PMS5003;34067;39.548;-76.088;2022-11-20T02:08:50;255;254;
31330;PMS5003;34067;39.548;-76.088;2022-11-20T02:11:18;223;222;
31330;PMS5003;34067;39.548;-76.088;2022-11-20T02:13:47;139;138;
31330;PMS5003;34067;39.548;-76.088;2022-11-20T02:16:17;88;87;
31330;PMS5003;34067;39.548;-76.088;2022-11-20T02:18:47;33;32;
31330;PMS5003;34067;39.548;-76.088;2022-11-20T02:21:20;15;13;
31330;PMS5003;34067;39.548;-76.088;2022-11-20T02:24:00;20;17;
31330;PMS5003;34067;39.548;-76.088;2022-11-20T02:26:31;25;22;
31330;PMS5003;34067;39.548;-76.088;2022-11-20T02:29:02;20;19;
31330;PMS5003;34067;39.548;-76.088;2022-11-20T02:31:34;52;50;
31330;PMS5003;34067;39.548;-76.088;2022-11-20T02:34:03;75;73;
31330;PMS5003;34067;39.548;-76.088;2022-11-20T02:36:33;36;35;
31330;PMS5003;34067;39.548;-76.088;2022-11-20T02:39:03;30;28;
31330;PMS5003;34067;39.548;-76.088;2022-11-20T02:41:33;81;80;
31330;PMS5003;34067;39.548;-76.088;2022-11-20T02:44:02;33;30;
31330;PMS5003;34067;39.548;-76.088;2022-11-20T02:46:31;61;57;
31330;PMS5003;34067;39.548;-76.088;2022-11-20T02:49:01;30;30;
31330;PMS5003;34067;39.548;-76.088;2022-11-20T02:51:30;23;21;
31330;PMS5003;34067;39.548;-76.088;2022-11-20T02:53:59;77;76;
31330;PMS5003;34067;39.548;-76.088;2022-11-20T02:56:27;26;26;
31330;PMS5003;34067;39.548;-76.088;2022-11-20T02:58:54;51;51;
31330;PMS5003;34067;39.548;-76.088;2022-11-20T03:01:23;30;28;
31330;PMS5003;34067;39.548;-76.088;2022-11-20T03:03:50;19;19;
31330;PMS5003;34067;39.548;-76.088;2022-11-20T03:06:18;58;56;
31330;PMS5003;34067;39.548;-76.088;2022-11-20T03:08:47;38;36;
31330;PMS5003;34067;39.548;-76.088;2022-11-20T03:11:15;32;32;
31330;PMS5003;34067;39.548;-76.088;2022-11-20T03:13:44;56;52;
31330;PMS5003;34067;39.548;-76.088;2022-11-20T03:16:13;31;31;
31330;PMS5003;34067;39.548;-76.088;2022-11-20T03:18:43;24;21;
31330;PMS5003;34067;39.548;-76.088;2022-11-20T03:21:12;30;28;
31330;PMS5003;34067;39.548;-76.088;2022-11-20T03:23:41;22;21;
31330;PMS5003;34067;39.548;-76.088;2022-11-20T03:26:10;30;29;
31330;PMS5003;34067;39.548;-76.088;2022-11-20T03:28:40;30;30;
31330;PMS5003;34067;39.548;-76.088;2022-11-20T03:31:08;25;24;
31330;PMS5003;34067;39.548;-76.088;2022-11-20T03:33:37;34;33;
31330;PMS5003;34067;39.548;-76.088;2022-11-20T03:36:07;48;47;
31330;PMS5003;34067;39.548;-76.088;2022-11-20T03:38:38;29;28;
31330;PMS5003;34067;39.548;-76.088;2022-11-20T03:41:07;30;27;
31330;PMS5003;34067;39.548;-76.088;2022-11-20T03:43:37;23;22;
31330;PMS5003;34067;39.548;-76.088;2022-11-20T03:46:06;30;29;
31330;PMS5003;34067;39.548;-76.088;2022-11-20T03:48:34;28;25;
31330;PMS5003;34067;39.548;-76.088;2022-11-20T03:51:10;31;28;
31330;PMS5003;34067;39.548;-76.088;2022-11-20T03:53:40;35;34;
31330;PMS5003;34067;39.548;-76.088;2022-11-20T03:56:09;29;29;
31330;PMS5003;34067;39.548;-76.088;2022-11-20T03:58:39;29;25;
31330;PMS5003;34067;39.548;-76.088;2022-11-20T04:01:07;27;25;
31330;PMS5003;34067;39.548;-76.088;2022-11-20T04:03:37;27;23;
31330;PMS5003;34067;39.548;-76.088;2022-11-20T04:06:08;23;21;
31330;PMS5003;34067;39.548;-76.088;2022-11-20T04:08:38;24;23;
31330;PMS5003;34067;39.548;-76.088;2022-11-20T04:11:09;25;25;
31330;PMS5003;34067;39.548;-76.088;2022-11-20T04:13:37;26;22;
31330;PMS5003;34067;39.548;-76.088;2022-11-20T04:16:07;31;30;
31330;PMS5003;34067;39.548;-76.088;2022-11-20T04:18:36;16;16;
31330;PMS5003;34067;39.548;-76.088;2022-11-20T04:21:05;15;15;
31330;PMS5003;34067;39.548;-76.088;2022-11-20T04:23:34;19;17;
31330;PMS5003;34067;39.548;-76.088;2022-11-20T04:26:03;18;16;
31330;PMS5003;34067;39.548;-76.088;2022-11-20T04:28:33;17;17;
31330;PMS5003;34067;39.548;-76.088;2022-11-20T04:31:02;20;16;
31330;PMS5003;34067;39.548;-76.088;2022-11-20T04:33:32;17;15;
31330;PMS5003;34067;39.548;-76.088;2022-11-20T04:36:01;19;19;
31330;PMS5003;34067;39.548;-76.088;2022-11-20T04:38:30;19;18;
31330;PMS5003;34067;39.548;-76.088;2022-11-20T04:40:58;22;20;
31330;PMS5003;34067;39.548;-76.088;2022-11-20T04:43:28;20;17;
31330;PMS5003;34067;39.548;-76.088;2022-11-20T04:45:57;16;15;
31330;PMS5003;34067;39.548;-76.088;2022-11-20T04:48:26;13;11;
31330;PMS5003;34067;39.548;-76.088;2022-11-20T04:50:55;14;14;
31330;PMS5003;34067;39.548;-76.088;2022-11-20T04:53:23;17;17;
31330;PMS5003;34067;39.548;-76.088;2022-11-20T04:55:52;14;13;
31330;PMS5003;34067;39.548;-76.088;2022-11-20T04:58:27;15;13;
31330;PMS5003;34067;39.548;-76.088;2022-11-20T05:01:00;15;12;
31330;PMS5003;34067;39.548;-76.088;2022-11-20T05:03:29;10;10;
31330;PMS5003;34067;39.548;-76.088;2022-11-20T05:05:59;12;9;
31330;PMS5003;34067;39.548;-76.088;2022-11-20T05:08:29;11;10;
31330;PMS5003;34067;39.548;-76.088;2022-11-20T05:11:01;14;11;
31330;PMS5003;34067;39.548;-76.088;2022-11-20T05:13:30;9;9;
31330;PMS5003;34067;39.548;-76.088;2022-11-20T05:16:01;15;14;
31330;PMS5003;34067;39.548;-76.088;2022-11-20T05:18:29;15;14;
31330;PMS5003;34067;39.548;-76.088;2022-11-20T05:20:57;15;12;
31330;PMS5003;34067;39.548;-76.088;2022-11-20T05:23:25;14;14;
31330;PMS5003;34067;39.548;-76.088;2022-11-20T05:25:54;12;11;
31330;PMS5003;34067;39.548;-76.088;2022-11-20T05:28:22;10;9;
31330;PMS5003;34067;39.548;-76.088;2022-11-20T05:30:51;16;14;
31330;PMS5003;34067;39.548;-76.088;2022-11-20T05:33:19;10;10;
31330;PMS5003;34067;39.548;-76.088;2022-11-20T05:35:47;11;10;
31330;PMS5003;34067;39.548;-76.088;2022-11-20T05:38:16;15;14;
31330;PMS5003;34067;39.548;-76.088;2022-11-20T05:40:44;16;15;
31330;PMS5003;34067;39.548;-76.088;2022-11-20T05:43:11;24;23;
31330;PMS5003;34067;39.548;-76.088;2022-11-20T05:45:39;27;25;
31330;PMS5003;34067;39.548;-76.088;2022-11-20T05:48:06;24;22;
31330;PMS5003;34067;39.548;-76.088;2022-11-20T05:50:34;23;23;
31330;PMS5003;34067;39.548;-76.088;2022-11-20T05:53:03;18;18;
31330;PMS5003;34067;39.548;-76.088;2022-11-20T05:55:30;23;22;
31330;PMS5003;34067;39.548;-76.088;2022-11-20T05:57:58;23;22;
31330;PMS5003;34067;39.548;-76.088;2022-11-20T06:03:09;16;16;
31330;PMS5003;34067;39.548;-76.088;2022-11-20T06:05:37;18;17;
31330;PMS5003;34067;39.548;-76.088;2022-11-20T06:08:05;21;20;
31330;PMS5003;34067;39.548;-76.088;2022-11-20T06:10:33;20;16;
31330;PMS5003;34067;39.548;-76.088;2022-11-20T06:13:00;24;23;
31330;PMS5003;34067;39.548;-76.088;2022-11-20T06:15:28;27;27;
31330;PMS5003;34067;39.548;-76.088;2022-11-20T06:17:56;25;25;
31330;PMS5003;34067;39.548;-76.088;2022-11-20T06:20:24;51;50;
31330;PMS5003;34067;39.548;-76.088;2022-11-20T06:22:52;30;30;
31330;PMS5003;34067;39.548;-76.088;2022-11-20T06:25:20;17;16;
31330;PMS5003;34067;39.548;-76.088;2022-11-20T06:27:48;53;53;
31330;PMS5003;34067;39.548;-76.088;2022-11-20T06:30:16;37;33;
31330;PMS5003;34067;39.548;-76.088;2022-11-20T06:32:45;39;35;
31330;PMS5003;34067;39.548;-76.088;2022-11-20T06:35:13;49;47;
31330;PMS5003;34067;39.548;-76.088;2022-11-20T06:37:48;51;49;
31330;PMS5003;34067;39.548;-76.088;2022-11-20T06:40:18;34;34;
31330;PMS5003;34067;39.548;-76.088;2022-11-20T06:42:45;34;34;
31330;PMS5003;34067;39.548;-76.088;2022-11-20T06:45:14;29;27;
31330;PMS5003;34067;39.548;-76.088;2022-11-20T06:47:42;41;41;
31330;PMS5003;34067;39.548;-76.088;2022-11-20T06:50:10;35;35;
31330;PMS5003;34067;39.548;-76.088;2022-11-20T06:52:38;41;40;
31330;PMS5003;34067;39.548;-76.088;2022-11-20T06:55:06;28;28;
31330;PMS5003;34067;39.548;-76.088;2022-11-20T06:57:36;44;44;
31330;PMS5003;34067;39.548;-76.088;2022-11-20T07:00:04;46;45;
31330;PMS5003;34067;39.548;-76.088;2022-11-20T07:02:33;59;59;
31330;PMS5003;34067;39.548;-76.088;2022-11-20T07:05:01;78;75;
31330;PMS5003;34067;39.548;-76.088;2022-11-20T07:07:30;81;80;
31330;PMS5003;34067;39.548;-76.088;2022-11-20T07:09:58;121;118;
31330;PMS5003;34067;39.548;-76.088;2022-11-20T07:12:25;134;134;
31330;PMS5003;34067;39.548;-76.088;2022-11-20T07:14:53;156;153;
31330;PMS5003;34067;39.548;-76.088;2022-11-20T07:17:21;117;115;
31330;PMS5003;34067;39.548;-76.088;2022-11-20T07:19:49;9;7;
31330;PMS5003;34067;39.548;-76.088;2022-11-20T07:22:17;7;7;
31330;PMS5003;34067;39.548;-76.088;2022-11-20T07:24:45;7;7;
31330;PMS5003;34067;39.548;-76.088;2022-11-20T07:27:13;7;6;
31330;PMS5003;34067;39.548;-76.088;2022-11-20T07:29:42;9;7;
31330;PMS5003;34067;39.548;-76.088;2022-11-20T07:32:10;9;8;
31330;PMS5003;34067;39.548;-76.088;2022-11-20T07:34:37;7;7;
31330;PMS5003;34067;39.548;-76.088;2022-11-20T07:37:06;6;4;
31330;PMS5003;34067;39.548;-76.088;2022-11-20T07:39:33;7;6;
31330;PMS5003;34067;39.548;-76.088;2022-11-20T07:42:01;6;6;
31330;PMS5003;34067;39.548;-76.088;2022-11-20T07:44:29;7;6;
31330;PMS5003;34067;39.548;-76.088;2022-11-20T07:46:57;4;4;
31330;PMS5003;34067;39.548;-76.088;2022-11-20T07:49:26;4;4;
31330;PMS5003;34067;39.548;-76.088;2022-11-20T07:51:54;6;4;
31330;PMS5003;34067;39.548;-76.088;2022-11-20T07:54:22;6;6;
31330;PMS5003;34067;39.548;-76.088;2022-11-20T07:56:50;4;4;
31330;PMS5003;34067;39.548;-76.088;2022-11-20T07:59:17;2;2;
31330;PMS5003;34067;39.548;-76.088;2022-11-20T08:01:45;4;3;
31330;PMS5003;34067;39.548;-76.088;2022-11-20T08:04:13;4;4;
31330;PMS5003;34067;39.548;-76.088;2022-11-20T08:06:40;3;3;
31330;PMS5003;34067;39.548;-76.088;2022-11-20T08:09:08;4;2;
31330;PMS5003;34067;39.548;-76.088;2022-11-20T08:11:35;4;3;
31330;PMS5003;34067;39.548;-76.088;2022-11-20T08:14:03;2;2;
31330;PMS5003;34067;39.548;-76.088;2022-11-20T08:16:30;4;3;
31330;PMS5003;34067;39.548;-76.088;2022-11-20T08:18:58;2;2;
31330;PMS5003;34067;39.548;-76.088;2022-11-20T08:21:26;2;2;
31330;PMS5003;34067;39.548;-76.088;2022-11-20T08:23:54;2;2;
31330;PMS5003;34067;39.548;-76.088;2022-11-20T08:26:22;3;3;
31330;PMS5003;34067;39.548;-76.088;2022-11-20T08:28:53;3;3;
31330;PMS5003;34067;39.548;-76.088;2022-11-20T08:31:21;3;3;
31330;PMS5003;34067;39.548;-76.088;2022-11-20T08:33:50;4;3;
31330;PMS5003;34067;39.548;-76.088;2022-11-20T08:36:18;2;2;
31330;PMS5003;34067;39.548;-76.088;2022-11-20T08:38:47;4;3;
31330;PMS5003;34067;39.548;-76.088;2022-11-20T08:41:16;3;3;
31330;PMS5003;34067;39.548;-76.088;2022-11-20T08:43:44;4;3;
31330;PMS5003;34067;39.548;-76.088;2022-11-20T08:46:13;4;4;
31330;PMS5003;34067;39.548;-76.088;2022-11-20T08:48:41;3;3;
31330;PMS5003;34067;39.548;-76.088;2022-11-20T08:51:09;4;2;
31330;PMS5003;34067;39.548;-76.088;2022-11-20T08:53:37;3;3;
31330;PMS5003;34067;39.548;-76.088;2022-11-20T08:56:06;3;2;
31330;PMS5003;34067;39.548;-76.088;2022-11-20T08:58:34;4;4;
31330;PMS5003;34067;39.548;-76.088;2022-11-20T09:01:02;3;1;
31330;PMS5003;34067;39.548;-76.088;2022-11-20T09:03:30;4;3;
31330;PMS5003;34067;39.548;-76.088;2022-11-20T09:05:57;2;2;
31330;PMS5003;34067;39.548;-76.088;2022-11-20T09:08:26;3;3;
31330;PMS5003;34067;39.548;-76.088;2022-11-20T09:10:55;2;2;
31330;PMS5003;34067;39.548;-76.088;2022-11-20T09:13:24;3;2;
31330;PMS5003;34067;39.548;-76.088;2022-11-20T09:15:53;4;4;
31330;PMS5003;34067;39.548;-76.088;2022-11-20T09:18:21;4;3;
31330;PMS5003;34067;39.548;-76.088;2022-11-20T09:20:50;3;2;
31330;PMS5003;34067;39.548;-76.088;2022-11-20T09:23:17;4;4;
31330;PMS5003;34067;39.548;-76.088;2022-11-20T09:25:45;3;3;
31330;PMS5003;34067;39.548;-76.088;2022-11-20T09:28:13;3;2;
31330;PMS5003;34067;39.548;-76.088;2022-11-20T09:30:41;3;3;
31330;PMS5003;34067;39.548;-76.088;2022-11-20T09:33:08;3;3;
31330;PMS5003;34067;39.548;-76.088;2022-11-20T09:35:36;3;3;
31330;PMS5003;34067;39.548;-76.088;2022-11-20T09:38:04;3;3;
31330;PMS5003;34067;39.548;-76.088;2022-11-20T09:40:34;3;3;
31330;PMS5003;34067;39.548;-76.088;2022-11-20T09:43:07;7;7;
31330;PMS5003;34067;39.548;-76.088;2022-11-20T09:45:45;4;4;
31330;PMS5003;34067;39.548;-76.088;2022-11-20T09:48:32;6;6;
31330;PMS5003;34067;39.548;-76.088;2022-11-20T09:51:12;2;2;
31330;PMS5003;34067;39.548;-76.088;2022-11-20T09:53:52;4;3;
31330;PMS5003;34067;39.548;-76.088;2022-11-20T09:56:33;3;2;
31330;PMS5003;34067;39.548;-76.088;2022-11-20T09:59:04;4;3;
31330;PMS5003;34067;39.548;-76.088;2022-11-20T10:01:35;3;3;
31330;PMS5003;34067;39.548;-76.088;2022-11-20T10:04:06;3;3;
31330;PMS5003;34067;39.548;-76.088;2022-11-20T10:06:42;4;4;
31330;PMS5003;34067;39.548;-76.088;2022-11-20T10:09:20;3;3;
31330;PMS5003;34067;39.548;-76.088;2022-11-20T10:11:59;3;3;
31330;PMS5003;34067;39.548;-76.088;2022-11-20T10:14:44;4;3;
31330;PMS5003;34067;39.548;-76.088;2022-11-20T10:17:29;2;2;
31330;PMS5003;34067;39.548;-76.088;2022-11-20T10:20:15;4;3;
31330;PMS5003;34067;39.548;-76.088;2022-11-20T10:22:52;4;3;
31330;PMS5003;34067;39.548;-76.088;2022-11-20T10:25:36;4;4;
31330;PMS5003;34067;39.548;-76.088;2022-11-20T10:28:12;6;6;
31330;PMS5003;34067;39.548;-76.088;2022-11-20T10:30:54;4;4;
31330;PMS5003;34067;39.548;-76.088;2022-11-20T10:33:27;3;3;
31330;PMS5003;34067;39.548;-76.088;2022-11-20T10:36:04;6;4;
31330;PMS5003;34067;39.548;-76.088;2022-11-20T10:38:42;7;7;
31330;PMS5003;34067;39.548;-76.088;2022-11-20T10:41:16;4;4;
31330;PMS5003;34067;39.548;-76.088;2022-11-20T10:43:56;7;7;
31330;PMS5003;34067;39.548;-76.088;2022-11-20T10:46:34;6;6;
31330;PMS5003;34067;39.548;-76.088;2022-11-20T10:49:11;7;4;
31330;PMS5003;34067;39.548;-76.088;2022-11-20T10:51:46;6;4;
31330;PMS5003;34067;39.548;-76.088;2022-11-20T10:54:29;6;6;
31330;PMS5003;34067;39.548;-76.088;2022-11-20T10:57:07;7;6;
31330;PMS5003;34067;39.548;-76.088;2022-11-20T11:00:04;6;4;
31330;PMS5003;34067;39.548;-76.088;2022-11-20T11:02:38;4;4;
31330;PMS5003;34067;39.548;-76.088;2022-11-20T11:05:20;7;6;
31330;PMS5003;34067;39.548;-76.088;2022-11-20T11:07:58;8;7;
31330;PMS5003;34067;39.548;-76.088;2022-11-20T11:10:30;4;4;
31330;PMS5003;34067;39.548;-76.088;2022-11-20T11:13:03;6;4;
31330;PMS5003;34067;39.548;-76.088;2022-11-20T11:15:36;8;4;
31330;PMS5003;34067;39.548;-76.088;2022-11-20T11:18:07;6;6;
31330;PMS5003;34067;39.548;-76.088;2022-11-20T11:20:36;6;6;
31330;PMS5003;34067;39.548;-76.088;2022-11-20T11:23:10;6;6;
31330;PMS5003;34067;39.548;-76.088;2022-11-20T11:25:56;6;6;
31330;PMS5003;34067;39.548;-76.088;2022-11-20T11:28:26;9;8;
31330;PMS5003;34067;39.548;-76.088;2022-11-20T11:30:55;7;7;
31330;PMS5003;34067;39.548;-76.088;2022-11-20T11:33:24;6;6;
31330;PMS5003;34067;39.548;-76.088;2022-11-20T11:35:54;7;7;
31330;PMS5003;34067;39.548;-76.088;2022-11-20T11:38:28;6;6;
31330;PMS5003;34067;39.548;-76.088;2022-11-20T11:41:00;7;7;
31330;PMS5003;34067;39.548;-76.088;2022-11-20T11:43:29;7;6;
31330;PMS5003;34067;39.548;-76.088;2022-11-20T11:46:00;6;6;
31330;PMS5003;34067;39.548;-76.088;2022-11-20T11:48:28;7;6;
31330;PMS5003;34067;39.548;-76.088;2022-11-20T11:50:55;7;7;
31330;PMS5003;34067;39.548;-76.088;2022-11-20T11:53:23;8;8;
31330;PMS5003;34067;39.548;-76.088;2022-11-20T11:55:56;7;7;
31330;PMS5003;34067;39.548;-76.088;2022-11-20T11:58:34;6;6;
31330;PMS5003;34067;39.548;-76.088;2022-11-20T12:01:16;6;6;
31330;PMS5003;34067;39.548;-76.088;2022-11-20T12:03:55;7;7;
31330;PMS5003;34067;39.548;-76.088;2022-11-20T12:06:31;8;8;
31330;PMS5003;34067;39.548;-76.088;2022-11-20T12:09:04;6;4;
31330;PMS5003;34067;39.548;-76.088;2022-11-20T12:11:43;7;6;
31330;PMS5003;34067;39.548;-76.088;2022-11-20T12:14:15;7;7;
31330;PMS5003;34067;39.548;-76.088;2022-11-20T12:16:45;6;5;
31330;PMS5003;34067;39.548;-76.088;2022-11-20T12:19:14;6;6;
31330;PMS5003;34067;39.548;-76.088;2022-11-20T12:21:48;5;5;
31330;PMS5003;34067;39.548;-76.088;2022-11-20T12:24:29;5;3;
31330;PMS5003;34067;39.548;-76.088;2022-11-20T12:27:13;6;6;
31330;PMS5003;34067;39.548;-76.088;2022-11-20T12:31:02;6;6;
31330;PMS5003;34067;39.548;-76.088;2022-11-20T12:33:50;6;5;
31330;PMS5003;34067;39.548;-76.088;2022-11-20T12:36:33;4;4;
31330;PMS5003;34067;39.548;-76.088;2022-11-20T12:39:13;6;2;
31330;PMS5003;34067;39.548;-76.088;2022-11-20T12:42:00;3;3;
31330;PMS5003;34067;39.548;-76.088;2022-11-20T12:45:46;5;5;
31330;PMS5003;34067;39.548;-76.088;2022-11-20T12:48:37;2;2;
31330;PMS5003;34067;39.548;-76.088;2022-11-20T12:51:39;3;3;
31330;PMS5003;34067;39.548;-76.088;2022-11-20T12:54:45;2;2;
31330;PMS5003;34067;39.548;-76.088;2022-11-20T12:57:27;2;2;
31330;PMS5003;34067;39.548;-76.088;2022-11-20T13:00:09;5;5;
31330;PMS5003;34067;39.548;-76.088;2022-11-20T13:02:52;3;3;
31330;PMS5003;34067;39.548;-76.088;2022-11-20T13:05:34;3;3;
31330;PMS5003;34067;39.548;-76.088;2022-11-20T13:08:18;3;3;
31330;PMS5003;34067;39.548;-76.088;2022-11-20T13:10:50;2;2;
31330;PMS5003;34067;39.548;-76.088;2022-11-20T13:13:25;2;2;
31330;PMS5003;34067;39.548;-76.088;2022-11-20T13:16:00;6;3;
31330;PMS5003;34067;39.548;-76.088;2022-11-20T13:18:33;3;3;
31330;PMS5003;34067;39.548;-76.088;2022-11-20T13:21:13;3;3;
31330;PMS5003;34067;39.548;-76.088;2022-11-20T13:23:42;2;2;
31330;PMS5003;34067;39.548;-76.088;2022-11-20T13:26:15;2;2;
31330;PMS5003;34067;39.548;-76.088;2022-11-20T13:28:46;2;2;
31330;PMS5003;34067;39.548;-76.088;2022-11-20T13:31:29;3;3;
31330;PMS5003;34067;39.548;-76.088;2022-11-20T13:33:59;3;3;
31330;PMS5003;34067;39.548;-76.088;2022-11-20T13:36:30;3;3;
31330;PMS5003;34067;39.548;-76.088;2022-11-20T13:38:58;2;2;
31330;PMS5003;34067;39.548;-76.088;2022-11-20T13:41:27;2;2;
31330;PMS5003;34067;39.548;-76.088;2022-11-20T13:43:58;2;2;
31330;PMS5003;34067;39.548;-76.088;2022-11-20T13:46:37;3;3;
31330;PMS5003;34067;39.548;-76.088;2022-11-20T13:49:07;2;2;
31330;PMS5003;34067;39.548;-76.088;2022-11-20T13:51:40;5;5;
31330;PMS5003;34067;39.548;-76.088;2022-11-20T13:54:37;6;3;
31330;PMS5003;34067;39.548;-76.088;2022-11-20T13:57:42;3;3;
31330;PMS5003;34067;39.548;-76.088;2022-11-20T14:00:21;3;3;
31330;PMS5003;34067;39.548;-76.088;2022-11-20T14:02:57;5;5;
31330;PMS5003;34067;39.548;-76.088;2022-11-20T14:05:35;3;3;
31330;PMS5003;34067;39.548;-76.088;2022-11-20T14:08:06;3;3;
31330;PMS5003;34067;39.548;-76.088;2022-11-20T14:10:50;2;2;
31330;PMS5003;34067;39.548;-76.088;2022-11-20T14:13:28;5;5;
31330;PMS5003;34067;39.548;-76.088;2022-11-20T14:15:56;3;3;
31330;PMS5003;34067;39.548;-76.088;2022-11-20T14:18:25;3;3;
31330;PMS5003;34067;39.548;-76.088;2022-11-20T14:20:53;5;3;
31330;PMS5003;34067;39.548;-76.088;2022-11-20T14:23:25;3;3;
31330;PMS5003;34067;39.548;-76.088;2022-11-20T14:25:55;3;3;
31330;PMS5003;34067;39.548;-76.088;2022-11-20T14:28:25;3;3;
31330;PMS5003;34067;39.548;-76.088;2022-11-20T14:30:54;5;5;
31330;PMS5003;34067;39.548;-76.088;2022-11-20T14:33:23;3;3;
31330;PMS5003;34067;39.548;-76.088;2022-11-20T14:35:54;2;2;
31330;PMS5003;34067;39.548;-76.088;2022-11-20T14:38:25;2;2;
31330;PMS5003;34067;39.548;-76.088;2022-11-20T14:41:06;3;2;
31330;PMS5003;34067;39.548;-76.088;2022-11-20T14:43:34;7;4;
31330;PMS5003;34067;39.548;-76.088;2022-11-20T14:46:03;5;3;
31330;PMS5003;34067;39.548;-76.088;2022-11-20T14:48:36;5;3;
31330;PMS5003;34067;39.548;-76.088;2022-11-20T14:51:09;3;3;
31330;PMS5003;34067;39.548;-76.088;2022-11-20T14:53:38;2;2;
31330;PMS5003;34067;39.548;-76.088;2022-11-20T14:56:07;5;2;
31330;PMS5003;34067;39.548;-76.088;2022-11-20T14:58:36;6;5;
31330;PMS5003;34067;39.548;-76.088;2022-11-20T15:01:04;3;3;
31330;PMS5003;34067;39.548;-76.088;2022-11-20T15:03:34;5;3;
31330;PMS5003;34067;39.548;-76.088;2022-11-20T15:06:03;5;3;
31330;PMS5003;34067;39.548;-76.088;2022-11-20T15:08:32;3;2;
31330;PMS5003;34067;39.548;-76.088;2022-11-20T15:11:01;5;5;
31330;PMS5003;34067;39.548;-76.088;2022-11-20T15:13:31;3;3;
31330;PMS5003;34067;39.548;-76.088;2022-11-20T15:16:01;3;3;
31330;PMS5003;34067;39.548;-76.088;2022-11-20T15:18:31;1;1;
31330;PMS5003;34067;39.548;-76.088;2022-11-20T15:21:11;3;3;
31330;PMS5003;34067;39.548;-76.088;2022-11-20T15:23:40;2;2;
31330;PMS5003;34067;39.548;-76.088;2022-11-20T15:26:09;3;3;
31330;PMS5003;34067;39.548;-76.088;2022-11-20T15:28:39;1;1;
31330;PMS5003;34067;39.548;-76.088;2022-11-20T15:31:09;3;3;
31330;PMS5003;34067;39.548;-76.088;2022-11-20T15:33:40;5;3;
31330;PMS5003;34067;39.548;-76.088;2022-11-20T15:36:08;5;3;
31330;PMS5003;34067;39.548;-76.088;2022-11-20T15:38:36;3;3;
31330;PMS5003;34067;39.548;-76.088;2022-11-20T15:41:05;2;2;
31330;PMS5003;34067;39.548;-76.088;2022-11-20T15:43:33;3;3;
31330;PMS5003;34067;39.548;-76.088;2022-11-20T15:46:02;3;3;
31330;PMS5003;34067;39.548;-76.088;2022-11-20T15:48:34;3;3;
31330;PMS5003;34067;39.548;-76.088;2022-11-20T15:51:06;3;3;
31330;PMS5003;34067;39.548;-76.088;2022-11-20T15:53:51;5;5;
31330;PMS5003;34067;39.548;-76.088;2022-11-20T15:56:19;3;2;
31330;PMS5003;34067;39.548;-76.088;2022-11-20T15:58:46;3;2;
31330;PMS5003;34067;39.548;-76.088;2022-11-20T16:01:15;2;2;
31330;PMS5003;34067;39.548;-76.088;2022-11-20T16:03:44;2;2;
31330;PMS5003;34067;39.548;-76.088;2022-11-20T16:06:12;2;2;
31330;PMS5003;34067;39.548;-76.088;2022-11-20T16:08:39;3;3;
31330;PMS5003;34067;39.548;-76.088;2022-11-20T16:11:09;3;3;
31330;PMS5003;34067;39.548;-76.088;2022-11-20T16:13:39;5;5;
31330;PMS5003;34067;39.548;-76.088;2022-11-20T16:16:10;3;2;
31330;PMS5003;34067;39.548;-76.088;2022-11-20T16:18:46;8;6;
31330;PMS5003;34067;39.548;-76.088;2022-11-20T16:21:14;2;2;
31330;PMS5003;34067;39.548;-76.088;2022-11-20T16:23:42;4;3;
31330;PMS5003;34067;39.548;-76.088;2022-11-20T16:26:11;3;3;
31330;PMS5003;34067;39.548;-76.088;2022-11-20T16:28:40;2;2;
31330;PMS5003;34067;39.548;-76.088;2022-11-20T16:31:09;3;3;